Flight Track Log - Related Links

Times and Time Zones

All times are in EDT time to prevent confusion due to time zone crossing. See the EJA929 flight status page for this flight to view local times or setup timezone preferences in your user account.

Time Position Orientation Groundspeed Altitude Reporting Facility
EDT Latitude Longitude Course Direction KTS MPH feet Rate Location/Type
Sun 06:14:12 PM 41.3281 -70.8258 270° West 250 288 4,800  Level Boston Center
Sun 06:15:12 PM 41.2661 -70.8742 210° Southwest 239 275 7,200 2,441 Climbing Boston Center
Sun 06:16:10 PM 41.2506 -70.7917 104° East 145 167 9,600 1,613 Climbing Boston Center
Sun 06:17:00 PM 41.2088 -71.1963 247° West  Level Estimated
Sun 06:17:11 PM 41.3381 -70.7922 360° North 167 192 10,400  Level Boston Center
Sun 06:18:00 PM 41.1857 -71.3205 256° West  Level FlightAware Approximate
Sun 06:18:10 PM 41.4139 -70.8569 327° Northwest 269 310 12,200  Level Boston Center
Sun 06:19:00 PM 41.1500 -71.4401 270° West  Level FlightAware Approximate
Sun 06:19:11 PM 41.4906 -70.9658 313° West 347 399 13,600  Level Boston Center
Sun 06:20:12 PM 41.4564 -71.0692 246° West 309 356 15,500 1,765 Climbing Boston Center
Sun 06:21:10 PM 41.3931 -71.1839 234° Southwest 326 375 17,100 1,513 Climbing Boston Center
Sun 06:22:11 PM 41.3378 -71.2789 232° Southwest 358 412 18,500 1,328 Climbing Boston Center
Sun 06:23:12 PM 41.2703 -71.4072 235° Southwest 374 430 19,800 1,289 Climbing Boston Center
Sun 06:24:12 PM 41.2044 -71.5186 232° Southwest 380 437 21,100 1,373 Climbing Boston Center
Sun 06:25:10 PM 41.1492 -71.6325 237° Southwest 380 437 22,500 1,282 Climbing Boston Center
Sun 06:26:23 PM 41.1022 -71.7681 245° Southwest 387 445 23,900 677 Climbing Boston Center
Sun 06:27:23 PM 41.0508 -71.9308 247° West 421 484 24,000 50 Climbing Boston Center
Sun 06:28:24 PM 40.9994 -72.0769 245° Southwest 436 502 24,000  Level Boston Center
Sun 06:29:24 PM 40.9517 -72.2286 247° West 444 511 24,000  Level Boston Center
Sun 06:30:24 PM 40.9019 -72.3797 247° West 450 518 24,000 -252 Level Boston Center
Sun 06:31:23 PM 40.8478 -72.5306 245° Southwest 455 524 23,500 -1,129 Descending Boston Center
Sun 06:33:00 PM 40.7832 -72.7091 229° Southwest  Level Estimated
Sun 06:33:30 PM 40.6411 -72.7542 229° Southwest 436 502 20,500  Level New York Center
Sun 06:34:30 PM 40.5519 -72.8525 220° Southwest 431 496 20,000 -244 Descending New York Center
Sun 06:35:33 PM 40.4606 -72.9478 218° Southwest 426 490 20,000  Level New York Center
Sun 06:36:31 PM 40.3733 -73.0403 219° Southwest 421 484 20,000  Level New York Center
Sun 06:37:32 PM 40.2861 -73.1356 220° Southwest 421 484 20,000  Level New York Center
Sun 06:38:31 PM 40.1944 -73.2328 219° Southwest 421 484 20,000  Level New York Center
Sun 06:39:31 PM 40.1069 -73.3300 220° Southwest 421 484 20,000 -198 Level New York Center
Sun 06:40:32 PM 40.0094 -73.4022 210° Southwest 415 478 19,600 -353 Descending New York Center
Sun 06:41:30 PM 39.9144 -73.4528 202° Southwest 415 478 19,300 -661 Descending New York Center
Sun 06:42:30 PM 39.8214 -73.5086 205° Southwest 391 450 18,300 -1,190 Descending New York Center
Sun 06:43:31 PM 39.7567 -73.6061 229° Southwest 358 412 16,900 -992 Descending New York Center
Sun 06:44:31 PM 39.7081 -73.7175 240° Southwest 352 405 16,300 -605 Descending New York Center
Sun 06:45:40 PM 39.6467 -73.8533 240° Southwest 356 410 15,600 -605 Descending Washington Center
Sun 06:46:40 PM 39.6044 -73.9594 243° Southwest 356 410 15,000 -610 Descending Washington Center
Sun 06:47:38 PM 39.5578 -74.0628 240° Southwest 351 404 14,400 -555 Descending Washington Center
Sun 06:48:39 PM 39.5217 -74.1739 247° West 345 397 13,900 -984 Descending Washington Center
Sun 06:49:40 PM 39.5269 -74.2786 274° West 299 344 12,400 -2,471 Descending Washington Center
Sun 06:50:38 PM 39.5281 -74.3781 271° West 294 338 9,000 -2,723 Descending Washington Center
Sun 06:51:39 PM 39.5311 -74.4778 272° West 289 333 7,000 -1,525 Descending Washington Center
Sun 06:52:40 PM 39.5319 -74.5744 271° West 279 321 5,900 -541 Descending Washington Center
Sun 06:53:41 PM 39.5350 -74.6633 273° West 268 308 5,900 66 Level Washington Center
Sun 06:54:11 PM 39.5353 -74.7144 270° West 251 289 6,000  Climbing Washington Center
Sun 06:55:38 PM 39.5467 -74.8406 277° West 256 295 5,900  Descending Washington Center
Sun 06:56:35 PM 39.5667 -74.9333 286° West 244 281 6,000 54 Climbing Philadelphia TRACON
Sun 06:57:29 PM 39.5833 -75.0000 288° West 258 297 6,000 -421 Level Philadelphia TRACON
Sun 06:58:29 PM 39.6000 -75.1000 282° West 262 302 5,200 -1,000 Descending Philadelphia TRACON
Sun 06:59:29 PM 39.6167 -75.1833 285° West 263 303 4,000 -600 Descending Philadelphia TRACON
Sun 07:00:29 PM 39.6333 -75.2667 285° West 187 215 4,000  Level Philadelphia TRACON
Sun 07:01:29 PM 39.6500 -75.3333 288° West 200 230 4,000 -500 Level Philadelphia TRACON
Sun 07:02:29 PM 39.7000 -75.3500 346° North 206 237 3,000 -750 Descending Philadelphia TRACON
Sun 07:03:29 PM 39.7167 -75.4000 293° West 160 184 2,500 -600 Descending Philadelphia TRACON
Sun 07:04:29 PM 39.7000 -75.4667 252° West 145 167 1,800 -550 Descending Philadelphia TRACON
Sun 07:05:29 PM 39.7000 -75.5167 270° West 142 163 1,400 -619 Descending Philadelphia TRACON
Sun 07:06:35 PM 39.6833 -75.5667 247° West 145 167 500 -818 Descending Philadelphia TRACON
Sun 07:08:00 PM 39.6667 -75.6000 293° West  Level FlightAware Approximate
Sun 07:15:00 PM 39.6787 -75.6066 293° West  Level Estimated

Login

Don't have an account? Register now (free) for customized features, flight alerts, and more!